Time;durP1;ratioP1;P1;durP2;ratioP2;P2;SDS_P1;SDS_P2;PMS_P1;PMS_P2;Temp;Humidity;BMP_temperature;BMP_pressure;BME280_temperature;BME280_humidity;BME280_pressure;Samples;Min_cycle;Max_cycle;Signal;HPM_P1;HPM_P2
2022/08/08 00:01:52;;;;;;;9.43;8.53;;;;;;;;;;4950902;28;20213;-44
2022/08/08 00:04:22;;;;;;;10.30;9.30;;;;;;;;;;4953829;28;20345;-44
2022/08/08 00:06:52;;;;;;;13.97;12.47;;;;;;;;;;4952342;28;20280;-44
2022/08/08 00:09:18;;;;;;;13.70;12.30;;;;;;;;;;4949833;28;20804;-44
2022/08/08 00:11:50;;;;;;;15.43;12.80;;;;;;;;;;4952909;28;20174;-44
2022/08/08 00:14:27;;;;;;;15.60;14.07;;;;;;;;;;4951668;28;20174;-43
2022/08/08 00:17:02;;;;;;;18.20;16.30;;;;;;;;;;4952258;28;20345;-43
2022/08/08 00:20:01;;;;;;;17.30;15.60;;;;;;;;;;4949825;28;20807;-43
2022/08/08 00:22:39;;;;;;;19.07;17.03;;;;;;;;;;4940352;28;20190;-44
2022/08/08 00:25:07;;;;;;;17.80;16.00;;;;;;;;;;4951003;28;20177;-43
2022/08/08 00:27:35;;;;;;;18.57;16.57;;;;;;;;;;4951587;28;20245;-43
2022/08/08 00:30:05;;;;;;;18.77;16.87;;;;;;;;;;4967106;28;20484;-44
2022/08/08 00:32:57;;;;;;;18.60;16.83;;;;;;;;;;4950030;28;20695;-44
2022/08/08 00:35:41;;;;;;;16.73;15.03;;;;;;;;;;4949326;28;20905;-44
2022/08/08 00:38:07;;;;;;;18.03;16.27;;;;;;;;;;4952779;28;20194;-43
2022/08/08 00:40:40;;;;;;;16.30;14.60;;;;;;;;;;4953545;28;20420;-44
2022/08/08 00:43:24;;;;;;;18.63;16.83;;;;;;;;;;4951160;28;20178;-43
2022/08/08 00:46:09;;;;;;;19.27;17.47;;;;;;;;;;4952859;28;20182;-43
2022/08/08 00:48:41;;;;;;;20.57;18.47;;;;;;;;;;4952763;28;20340;-44
2022/08/08 00:51:10;;;;;;;19.10;16.53;;;;;;;;;;4950255;28;20685;-43
2022/08/08 00:53:39;;;;;;;18.97;17.07;;;;;;;;;;4950028;28;20174;-44
2022/08/08 00:56:17;;;;;;;18.70;16.27;;;;;;;;;;4952692;28;20204;-44
2022/08/08 00:58:46;;;;;;;19.20;17.10;;;;;;;;;;4948961;28;20182;-43
2022/08/08 01:01:15;;;;;;;18.60;16.80;;;;;;;;;;4949700;28;20959;-44
2022/08/08 01:04:00;;;;;;;18.87;16.97;;;;;;;;;;4949523;28;20185;-43
2022/08/08 01:06:29;;;;;;;18.73;16.93;;;;;;;;;;4952228;28;20190;-43
2022/08/08 01:09:14;;;;;;;18.57;16.60;;;;;;;;;;4950952;28;20209;-44
2022/08/08 01:11:43;;;;;;;17.93;16.13;;;;;;;;;;4950220;28;20177;-43
2022/08/08 01:14:27;;;;;;;17.77;15.87;;;;;;;;;;4950113;28;20295;-44
2022/08/08 01:17:12;;;;;;;17.20;15.50;;;;;;;;;;4953359;28;20608;-44
2022/08/08 01:19:51;;;;;;;16.20;14.50;;;;;;;;;;4949226;28;20271;-43
2022/08/08 01:22:30;;;;;;;17.77;16.03;;;;;;;;;;4954618;28;20448;-44
2022/08/08 01:25:11;;;;;;;17.17;15.47;;;;;;;;;;4951194;28;20313;-43
2022/08/08 01:27:58;;;;;;;16.20;14.63;;;;;;;;;;4949628;28;20469;-44
2022/08/08 01:30:31;;;;;;;17.03;15.33;;;;;;;;;;4949676;28;20233;-44
2022/08/08 01:33:16;;;;;;;14.87;13.47;;;;;;;;;;4951641;28;20794;-43
2022/08/08 01:36:01;;;;;;;15.37;13.87;;;;;;;;;;4951589;28;20181;-44
2022/08/08 01:38:36;;;;;;;14.53;13.13;;;;;;;;;;4948293;28;20960;-44
2022/08/08 01:41:14;;;;;;;14.70;13.20;;;;;;;;;;4949829;28;20297;-44
2022/08/08 01:43:59;;;;;;;13.77;12.50;;;;;;;;;;4952140;28;20438;-43
2022/08/08 01:46:44;;;;;;;14.80;13.40;;;;;;;;;;4961032;28;20174;-44
2022/08/08 01:49:24;;;;;;;12.83;11.63;;;;;;;;;;4951739;28;20650;-44
2022/08/08 01:52:19;;;;;;;14.70;13.30;;;;;;;;;;4949664;28;20457;-44
2022/08/08 01:54:55;;;;;;;13.30;12.10;;;;;;;;;;4924167;28;20270;-44
2022/08/08 01:57:39;;;;;;;13.30;11.90;;;;;;;;;;4952894;28;20765;-44
2022/08/08 02:00:12;;;;;;;14.73;13.33;;;;;;;;;;4952953;28;20252;-44
2022/08/08 02:02:56;;;;;;;14.17;12.50;;;;;;;;;;4950494;28;21125;-44
2022/08/08 02:05:29;;;;;;;14.23;12.83;;;;;;;;;;4949002;28;20332;-44
2022/08/08 02:08:15;;;;;;;15.30;13.90;;;;;;;;;;4950753;28;20316;-43
2022/08/08 02:11:05;;;;;;;15.67;14.07;;;;;;;;;;4948923;28;20695;-44
2022/08/08 02:13:36;;;;;;;14.87;13.37;;;;;;;;;;4951843;28;20170;-44
2022/08/08 02:16:13;;;;;;;19.13;17.13;;;;;;;;;;4952071;28;20183;-44
2022/08/08 02:18:45;;;;;;;19.70;17.63;;;;;;;;;;4949922;28;20185;-44
2022/08/08 02:24:09;;;;;;;16.83;14.97;;;;;;;;;;4952327;28;20256;-43
2022/08/08 02:26:58;;;;;;;17.70;15.20;;;;;;;;;;4949620;28;20629;-43
2022/08/08 02:29:43;;;;;;;15.67;14.17;;;;;;;;;;4946775;28;20618;-43
2022/08/08 02:32:12;;;;;;;16.83;13.73;;;;;;;;;;4953065;28;20616;-43
2022/08/08 02:34:56;;;;;;;17.53;14.63;;;;;;;;;;4950876;28;20408;-43
2022/08/08 02:37:28;;;;;;;16.23;14.63;;;;;;;;;;4947168;28;20472;-43
2022/08/08 02:39:58;;;;;;;14.10;12.70;;;;;;;;;;4951177;28;20856;-43
2022/08/08 02:42:42;;;;;;;14.20;12.73;;;;;;;;;;4951480;28;20910;-43
2022/08/08 02:45:27;;;;;;;13.50;11.93;;;;;;;;;;4948219;28;20185;-43
2022/08/08 02:47:59;;;;;;;13.17;11.80;;;;;;;;;;4950929;28;20285;-43
2022/08/08 02:50:40;;;;;;;13.60;12.20;;;;;;;;;;4952235;28;20606;-42
2022/08/08 02:53:11;;;;;;;12.90;11.53;;;;;;;;;;4948516;28;20343;-43
2022/08/08 02:56:00;;;;;;;14.77;12.77;;;;;;;;;;4949710;28;20225;-43
2022/08/08 02:58:26;;;;;;;13.97;12.57;;;;;;;;;;4950479;28;20194;-43
2022/08/08 03:01:04;;;;;;;13.20;11.97;;;;;;;;;;4951292;28;20188;-43
2022/08/08 03:03:51;;;;;;;13.43;12.13;;;;;;;;;;4951568;28;20178;-43
2022/08/08 03:06:36;;;;;;;13.33;11.80;;;;;;;;;;4954891;28;20681;-43
2022/08/08 03:09:18;;;;;;;12.53;11.30;;;;;;;;;;4952052;28;20216;-43
2022/08/08 03:11:50;;;;;;;13.10;11.80;;;;;;;;;;4954138;28;21579;-43
2022/08/08 03:14:16;;;;;;;14.07;12.77;;;;;;;;;;4955789;28;20186;-43
2022/08/08 03:16:42;;;;;;;14.73;13.43;;;;;;;;;;4955105;28;20600;-43
2022/08/08 03:19:31;;;;;;;15.20;13.53;;;;;;;;;;4950538;28;20182;-42
2022/08/08 03:21:57;;;;;;;14.77;13.27;;;;;;;;;;4950383;28;20735;-42
2022/08/08 03:24:23;;;;;;;14.73;12.30;;;;;;;;;;4951711;28;20832;-43
2022/08/08 03:26:52;;;;;;;14.17;12.80;;;;;;;;;;4952676;28;20166;-43
2022/08/08 03:29:23;;;;;;;16.67;15.17;;;;;;;;;;4952674;28;20304;-43
2022/08/08 03:34:35;;;;;;;16.23;14.63;;;;;;;;;;4951055;28;20610;-42
2022/08/08 03:37:01;;;;;;;15.83;14.33;;;;;;;;;;4954487;28;20668;-44
2022/08/08 03:39:27;;;;;;;15.27;13.67;;;;;;;;;;4952284;28;20406;-43
2022/08/08 03:41:54;;;;;;;15.30;13.77;;;;;;;;;;4952711;28;20185;-43
2022/08/08 03:44:20;;;;;;;15.00;13.53;;;;;;;;;;4952730;28;20369;-43
2022/08/08 03:46:46;;;;;;;18.07;16.47;;;;;;;;;;4952967;28;20179;-43
2022/08/08 03:49:17;;;;;;;18.77;16.97;;;;;;;;;;4947837;28;20328;-43
2022/08/08 03:51:43;;;;;;;18.43;16.57;;;;;;;;;;4950564;28;20209;-43
2022/08/08 03:54:10;;;;;;;16.30;14.70;;;;;;;;;;4955409;28;20462;-43
2022/08/08 03:56:36;;;;;;;15.90;14.40;;;;;;;;;;4951524;28;20388;-42
2022/08/08 03:59:02;;;;;;;16.43;14.83;;;;;;;;;;4949757;28;20301;-43
2022/08/08 04:01:38;;;;;;;15.07;13.67;;;;;;;;;;4952434;28;20180;-43
2022/08/08 04:04:04;;;;;;;16.07;14.40;;;;;;;;;;4950011;28;20170;-43
2022/08/08 04:06:31;;;;;;;16.50;14.97;;;;;;;;;;4949513;28;20178;-44
2022/08/08 04:08:58;;;;;;;16.23;14.53;;;;;;;;;;4952971;28;21041;-43
2022/08/08 04:11:24;;;;;;;16.30;14.60;;;;;;;;;;4952069;28;20170;-43
2022/08/08 04:13:50;;;;;;;16.10;14.50;;;;;;;;;;4951551;28;20673;-43
2022/08/08 04:16:16;;;;;;;15.80;14.23;;;;;;;;;;4953525;28;20240;-43
2022/08/08 04:18:42;;;;;;;16.67;15.07;;;;;;;;;;4951268;28;20257;-43
2022/08/08 04:21:08;;;;;;;18.57;16.77;;;;;;;;;;4951349;28;20516;-43
2022/08/08 04:23:34;;;;;;;16.63;14.97;;;;;;;;;;4953908;28;20244;-43
2022/08/08 04:26:00;;;;;;;16.83;15.23;;;;;;;;;;4954273;28;20268;-43
2022/08/08 04:28:27;;;;;;;17.53;15.80;;;;;;;;;;4950220;28;20202;-43
2022/08/08 04:30:53;;;;;;;20.80;16.90;;;;;;;;;;4952181;28;20198;-43
2022/08/08 04:33:19;;;;;;;16.87;15.23;;;;;;;;;;4954992;28;20490;-44
2022/08/08 04:35:45;;;;;;;18.43;16.63;;;;;;;;;;4952873;28;20179;-44
2022/08/08 04:38:11;;;;;;;17.33;15.37;;;;;;;;;;4963947;28;20706;-44
2022/08/08 04:40:38;;;;;;;15.37;13.97;;;;;;;;;;4966403;28;20285;-43
2022/08/08 04:43:04;;;;;;;16.53;14.83;;;;;;;;;;4951653;28;20200;-42
2022/08/08 04:45:31;;;;;;;14.90;13.50;;;;;;;;;;4951614;28;20210;-43
2022/08/08 04:48:00;;;;;;;15.17;13.77;;;;;;;;;;4952307;28;20209;-43
2022/08/08 04:50:26;;;;;;;17.67;13.77;;;;;;;;;;4953049;28;20916;-43
2022/08/08 04:52:53;;;;;;;18.00;15.33;;;;;;;;;;4950409;28;20182;-43
2022/08/08 04:55:19;;;;;;;16.77;15.17;;;;;;;;;;4967953;28;20179;-44
2022/08/08 04:57:45;;;;;;;15.27;13.67;;;;;;;;;;4951437;28;20715;-44
2022/08/08 05:00:12;;;;;;;16.07;13.40;;;;;;;;;;4951330;28;20765;-44
2022/08/08 05:02:38;;;;;;;15.27;13.67;;;;;;;;;;4952928;28;20683;-44
2022/08/08 05:05:04;;;;;;;13.60;12.20;;;;;;;;;;4952896;28;20676;-44
2022/08/08 05:07:30;;;;;;;13.30;11.77;;;;;;;;;;4950355;28;20844;-44
2022/08/08 05:09:57;;;;;;;13.97;10.23;;;;;;;;;;4951763;28;20682;-44
2022/08/08 05:12:23;;;;;;;10.93;9.83;;;;;;;;;;4951213;28;20377;-44
2022/08/08 05:14:49;;;;;;;10.03;9.07;;;;;;;;;;4951452;28;20568;-44
2022/08/08 05:17:15;;;;;;;9.83;8.83;;;;;;;;;;4949687;28;20257;-44
2022/08/08 05:19:41;;;;;;;10.17;8.33;;;;;;;;;;4951399;28;20250;-44
2022/08/08 05:22:08;;;;;;;8.43;7.53;;;;;;;;;;4952812;28;20394;-44
2022/08/08 05:24:35;;;;;;;9.83;8.93;;;;;;;;;;4950213;28;20178;-44
2022/08/08 05:27:01;;;;;;;10.80;8.43;;;;;;;;;;4952914;28;20265;-44
2022/08/08 05:29:27;;;;;;;9.00;8.20;;;;;;;;;;4949334;28;20201;-44
2022/08/08 05:31:54;;;;;;;13.47;9.90;;;;;;;;;;4948101;28;20186;-44
2022/08/08 05:34:26;;;;;;;10.90;9.13;;;;;;;;;;4950607;28;20189;-44
2022/08/08 05:36:53;;;;;;;10.70;9.60;;;;;;;;;;4954440;28;20295;-44
2022/08/08 05:39:24;;;;;;;10.90;9.77;;;;;;;;;;4948913;28;20396;-44
2022/08/08 05:41:50;;;;;;;9.80;8.80;;;;;;;;;;4950216;28;20281;-44
2022/08/08 05:44:20;;;;;;;11.43;8.70;;;;;;;;;;4951131;28;20186;-44
2022/08/08 05:46:47;;;;;;;10.00;9.00;;;;;;;;;;4949467;28;20182;-44
2022/08/08 05:49:14;;;;;;;9.93;7.67;;;;;;;;;;4948273;28;20205;-44
2022/08/08 05:51:40;;;;;;;8.17;7.37;;;;;;;;;;4950705;28;20805;-44
2022/08/08 05:54:07;;;;;;;7.77;7.07;;;;;;;;;;4950469;28;20166;-44
2022/08/08 05:56:37;;;;;;;8.97;7.03;;;;;;;;;;4948527;28;20189;-44
2022/08/08 05:59:04;;;;;;;6.37;5.77;;;;;;;;;;4951538;28;20816;-44
2022/08/08 06:01:32;;;;;;;8.43;7.40;;;;;;;;;;4948261;28;20938;-44
2022/08/08 06:04:01;;;;;;;8.17;6.80;;;;;;;;;;4947979;28;20489;-44
2022/08/08 06:06:29;;;;;;;8.57;6.90;;;;;;;;;;4950897;28;20248;-44
2022/08/08 06:08:58;;;;;;;7.20;5.93;;;;;;;;;;4952229;28;20844;-45
2022/08/08 06:11:26;;;;;;;6.57;5.97;;;;;;;;;;4948660;28;20321;-45
2022/08/08 06:13:52;;;;;;;9.80;7.27;;;;;;;;;;4947895;28;20290;-45
2022/08/08 06:16:19;;;;;;;6.77;5.97;;;;;;;;;;4949856;28;20708;-44
2022/08/08 06:18:47;;;;;;;8.10;7.40;;;;;;;;;;4949281;28;20183;-44
2022/08/08 06:21:14;;;;;;;7.93;7.13;;;;;;;;;;4950600;28;20209;-44
2022/08/08 06:23:40;;;;;;;10.40;7.97;;;;;;;;;;4953360;28;20361;-45
2022/08/08 06:26:07;;;;;;;7.77;6.93;;;;;;;;;;4950608;28;20488;-44
2022/08/08 06:28:36;;;;;;;8.47;7.13;;;;;;;;;;4951518;28;20481;-44
2022/08/08 06:31:05;;;;;;;12.17;7.57;;;;;;;;;;4950960;28;20456;-44
2022/08/08 06:33:46;;;;;;;8.47;7.37;;;;;;;;;;4952169;28;20182;-44
2022/08/08 06:36:17;;;;;;;11.40;7.37;;;;;;;;;;4957392;28;20289;-44
2022/08/08 06:38:46;;;;;;;9.93;8.37;;;;;;;;;;4954537;28;20976;-44
2022/08/08 06:41:14;;;;;;;8.87;7.90;;;;;;;;;;4954853;28;20749;-45
2022/08/08 06:43:43;;;;;;;9.63;7.97;;;;;;;;;;4955459;28;20422;-44
2022/08/08 06:46:10;;;;;;;8.87;8.00;;;;;;;;;;4958321;28;20444;-45
2022/08/08 06:48:36;;;;;;;11.60;8.40;;;;;;;;;;4955666;28;20213;-45
2022/08/08 06:51:03;;;;;;;8.80;7.90;;;;;;;;;;4955363;28;20750;-45
2022/08/08 06:53:30;;;;;;;11.20;8.80;;;;;;;;;;4956789;28;20944;-45
2022/08/08 06:55:57;;;;;;;8.97;8.10;;;;;;;;;;4955785;28;20801;-45
2022/08/08 06:58:23;;;;;;;8.30;7.57;;;;;;;;;;4953085;28;20730;-45
2022/08/08 07:00:50;;;;;;;8.90;7.50;;;;;;;;;;4954811;28;20182;-45
2022/08/08 07:03:40;;;;;;;8.57;6.93;;;;;;;;;;4955153;28;20217;-45
2022/08/08 07:06:09;;;;;;;10.00;7.67;;;;;;;;;;4962067;28;20427;-45
2022/08/08 07:08:39;;;;;;;12.67;8.63;;;;;;;;;;4954519;28;20474;-45
2022/08/08 07:11:07;;;;;;;12.93;8.03;;;;;;;;;;4956024;28;20194;-45
2022/08/08 07:13:38;;;;;;;11.77;10.67;;;;;;;;;;4952748;28;20217;-45
2022/08/08 07:16:04;;;;;;;12.30;10.80;;;;;;;;;;4952128;28;20186;-45
2022/08/08 07:18:30;;;;;;;12.90;11.60;;;;;;;;;;4956326;28;20220;-45
2022/08/08 07:20:59;;;;;;;11.40;10.30;;;;;;;;;;4956619;28;20178;-45
2022/08/08 07:23:35;;;;;;;16.77;11.07;;;;;;;;;;4952544;28;20202;-45
2022/08/08 07:26:02;;;;;;;11.03;9.33;;;;;;;;;;4953965;28;20703;-45
2022/08/08 07:28:29;;;;;;;10.37;9.27;;;;;;;;;;4955566;28;20526;-45
2022/08/08 07:30:57;;;;;;;7.63;6.83;;;;;;;;;;4953721;28;20496;-45
2022/08/08 07:33:23;;;;;;;9.50;7.50;;;;;;;;;;4951753;28;20822;-45
2022/08/08 07:35:50;;;;;;;9.73;8.73;;;;;;;;;;4956066;28;20182;-45
2022/08/08 07:38:17;;;;;;;9.93;8.53;;;;;;;;;;4955812;28;20380;-45
2022/08/08 07:40:44;;;;;;;11.30;10.20;;;;;;;;;;4952936;28;20174;-45
2022/08/08 07:43:11;;;;;;;11.53;10.20;;;;;;;;;;4980339;28;20896;-45
2022/08/08 07:45:38;;;;;;;11.83;10.57;;;;;;;;;;4955002;28;20205;-45
2022/08/08 07:48:04;;;;;;;9.90;8.50;;;;;;;;;;4954381;28;20726;-45
2022/08/08 07:50:31;;;;;;;12.23;8.40;;;;;;;;;;4952957;28;20281;-45
2022/08/08 07:52:59;;;;;;;14.43;9.97;;;;;;;;;;4947665;28;20182;-45
2022/08/08 07:55:27;;;;;;;12.23;10.00;;;;;;;;;;4945440;28;20615;-45
2022/08/08 07:58:22;;;;;;;10.60;9.60;;;;;;;;;;4945364;28;21692;-45
2022/08/08 08:00:52;;;;;;;13.93;12.47;;;;;;;;;;4939254;28;20260;-45
2022/08/08 08:03:21;;;;;;;11.47;10.37;;;;;;;;;;4949677;28;20187;-45
2022/08/08 08:05:52;;;;;;;15.27;13.33;;;;;;;;;;4944952;28;20271;-45
2022/08/08 08:08:20;;;;;;;14.30;12.90;;;;;;;;;;4945048;28;20280;-45
2022/08/08 08:10:48;;;;;;;11.13;10.03;;;;;;;;;;4948932;28;20243;-45
2022/08/08 08:13:20;;;;;;;10.77;9.77;;;;;;;;;;4947456;28;20321;-45
2022/08/08 08:15:52;;;;;;;11.77;10.57;;;;;;;;;;4945393;28;20617;-45
2022/08/08 08:18:22;;;;;;;13.50;10.33;;;;;;;;;;4947228;28;20201;-45
2022/08/08 08:20:48;;;;;;;10.37;9.37;;;;;;;;;;4948424;28;20295;-45
2022/08/08 08:23:14;;;;;;;10.33;9.33;;;;;;;;;;4946081;28;20186;-45
2022/08/08 08:25:40;;;;;;;10.60;9.43;;;;;;;;;;4946944;28;20248;-45
2022/08/08 08:28:06;;;;;;;9.90;8.90;;;;;;;;;;4945615;28;20909;-45
2022/08/08 08:30:34;;;;;;;10.70;9.60;;;;;;;;;;4944196;28;20654;-45
2022/08/08 08:33:00;;;;;;;10.40;9.40;;;;;;;;;;4946010;28;20177;-45
2022/08/08 08:35:26;;;;;;;9.73;8.73;;;;;;;;;;4950239;28;20299;-45
2022/08/08 08:37:52;;;;;;;11.33;8.77;;;;;;;;;;4952377;28;20206;-45
2022/08/08 08:40:18;;;;;;;9.47;8.57;;;;;;;;;;4950828;28;20549;-45
2022/08/08 08:42:45;;;;;;;9.17;8.30;;;;;;;;;;4956330;28;20403;-45
2022/08/08 08:45:12;;;;;;;12.13;8.67;;;;;;;;;;4954889;28;20417;-44
2022/08/08 08:47:38;;;;;;;10.23;9.23;;;;;;;;;;4950826;28;20623;-45
2022/08/08 08:50:04;;;;;;;10.20;9.20;;;;;;;;;;4951382;28;20753;-45
2022/08/08 08:52:31;;;;;;;10.67;9.67;;;;;;;;;;4954732;28;20357;-45
2022/08/08 08:55:00;;;;;;;13.23;8.80;;;;;;;;;;4953164;28;21041;-45
2022/08/08 08:57:27;;;;;;;10.47;9.47;;;;;;;;;;4952408;28;20170;-45
2022/08/08 08:59:55;;;;;;;11.13;9.90;;;;;;;;;;4953394;28;20178;-45
2022/08/08 09:02:23;;;;;;;15.13;9.63;;;;;;;;;;4954747;28;20774;-45
2022/08/08 09:04:51;;;;;;;9.67;8.67;;;;;;;;;;4951661;28;20257;-45
2022/08/08 09:07:19;;;;;;;10.33;8.23;;;;;;;;;;4955661;28;20545;-45
2022/08/08 09:09:54;;;;;;;9.67;6.97;;;;;;;;;;4950854;28;20281;-45
2022/08/08 09:12:24;;;;;;;7.47;6.37;;;;;;;;;;4952179;28;20608;-45
2022/08/08 09:14:56;;;;;;;6.37;5.77;;;;;;;;;;4952514;28;20336;-44
2022/08/08 09:17:26;;;;;;;7.97;6.17;;;;;;;;;;4953813;28;20564;-45
2022/08/08 09:19:54;;;;;;;6.50;5.87;;;;;;;;;;4953593;28;20327;-45
2022/08/08 09:22:21;;;;;;;6.27;5.17;;;;;;;;;;4955448;28;21506;-45
2022/08/08 09:24:48;;;;;;;7.03;5.30;;;;;;;;;;4950790;28;20190;-45
2022/08/08 09:27:15;;;;;;;5.67;5.17;;;;;;;;;;4950087;28;20178;-45
2022/08/08 09:29:52;;;;;;;5.40;4.90;;;;;;;;;;4951386;28;20205;-45
2022/08/08 09:32:29;;;;;;;6.10;4.70;;;;;;;;;;4953990;28;20178;-44
2022/08/08 09:34:57;;;;;;;8.23;4.67;;;;;;;;;;4951349;28;20616;-45
2022/08/08 09:37:27;;;;;;;5.60;4.00;;;;;;;;;;4954343;28;20584;-45
2022/08/08 09:40:02;;;;;;;6.60;4.83;;;;;;;;;;4954221;28;20298;-45
2022/08/08 09:42:33;;;;;;;6.70;5.27;;;;;;;;;;4950878;28;20226;-46
2022/08/08 09:45:04;;;;;;;5.30;4.43;;;;;;;;;;4952605;28;20178;-45
2022/08/08 09:47:35;;;;;;;4.97;4.40;;;;;;;;;;4955691;28;20260;-45
2022/08/08 09:50:03;;;;;;;8.47;4.73;;;;;;;;;;4952898;28;20182;-45
2022/08/08 09:52:30;;;;;;;7.63;4.40;;;;;;;;;;4949274;28;20274;-45
2022/08/08 09:54:57;;;;;;;5.17;4.20;;;;;;;;;;4952452;28;20178;-45
2022/08/08 09:57:33;;;;;;;7.40;5.00;;;;;;;;;;4953790;28;20292;-45
2022/08/08 10:00:00;;;;;;;7.10;4.70;;;;;;;;;;4951020;28;20213;-45
2022/08/08 10:02:38;;;;;;;7.77;5.27;;;;;;;;;;4951554;28;20714;-45
2022/08/08 10:05:17;;;;;;;5.70;3.93;;;;;;;;;;4954350;28;20280;-45
2022/08/08 10:07:53;;;;;;;5.53;3.97;;;;;;;;;;4951310;28;20321;-45
2022/08/08 10:10:25;;;;;;;7.00;4.80;;;;;;;;;;4956673;28;20383;-45
2022/08/08 10:12:51;;;;;;;6.10;4.60;;;;;;;;;;4959211;28;20714;-46
2022/08/08 10:15:17;;;;;;;6.10;4.50;;;;;;;;;;4956085;28;20178;-45
2022/08/08 10:17:47;;;;;;;4.77;4.13;;;;;;;;;;4956103;28;20194;-45
2022/08/08 10:20:13;;;;;;;4.33;3.73;;;;;;;;;;4960178;28;20435;-45
2022/08/08 10:22:46;;;;;;;6.27;4.20;;;;;;;;;;4953458;28;20621;-45
2022/08/08 10:25:14;;;;;;;6.20;3.63;;;;;;;;;;4954749;28;20185;-45
2022/08/08 10:27:42;;;;;;;5.70;3.27;;;;;;;;;;4956806;28;20408;-45
2022/08/08 10:30:09;;;;;;;4.47;3.50;;;;;;;;;;4955592;28;20189;-45
2022/08/08 10:32:41;;;;;;;5.60;3.90;;;;;;;;;;4958263;28;20282;-45
2022/08/08 10:35:14;;;;;;;3.90;3.60;;;;;;;;;;4959535;28;20619;-45
2022/08/08 10:38:00;;;;;;;4.07;3.77;;;;;;;;;;4950251;28;20219;-45
2022/08/08 10:40:27;;;;;;;4.20;3.80;;;;;;;;;;4953143;28;20284;-45
2022/08/08 10:43:01;;;;;;;5.37;3.90;;;;;;;;;;4954941;28;20475;-45
2022/08/08 10:45:28;;;;;;;4.77;3.40;;;;;;;;;;4956438;28;20276;-46
2022/08/08 10:47:59;;;;;;;4.87;4.40;;;;;;;;;;4962831;28;20232;-45
2022/08/08 10:50:35;;;;;;;5.70;4.50;;;;;;;;;;4955620;28;20618;-45
2022/08/08 10:53:08;;;;;;;5.37;4.10;;;;;;;;;;4958225;28;20698;-45
2022/08/08 10:55:36;;;;;;;4.63;3.60;;;;;;;;;;4957345;28;20346;-45
2022/08/08 10:58:04;;;;;;;5.67;3.60;;;;;;;;;;4951397;28;20418;-45
2022/08/08 11:00:31;;;;;;;5.17;4.07;;;;;;;;;;4967531;28;20613;-45
2022/08/08 11:03:09;;;;;;;4.03;3.53;;;;;;;;;;4954861;28;20310;-45
2022/08/08 11:05:41;;;;;;;5.17;3.80;;;;;;;;;;4955391;28;20178;-45
2022/08/08 11:08:07;;;;;;;3.70;3.40;;;;;;;;;;4971601;28;20209;-45
2022/08/08 11:10:33;;;;;;;4.30;3.57;;;;;;;;;;4952455;28;20248;-45
2022/08/08 11:12:59;;;;;;;4.77;3.47;;;;;;;;;;4954696;28;20181;-46
2022/08/08 11:15:28;;;;;;;6.30;3.93;;;;;;;;;;4956861;28;20539;-45
2022/08/08 11:17:54;;;;;;;4.10;3.63;;;;;;;;;;4954240;28;20753;-46
2022/08/08 11:20:20;;;;;;;5.33;3.70;;;;;;;;;;4954591;28;20174;-45
2022/08/08 11:22:49;;;;;;;3.73;3.43;;;;;;;;;;4956793;28;20224;-45
2022/08/08 11:25:15;;;;;;;4.97;3.60;;;;;;;;;;4953920;28;20744;-46
2022/08/08 11:27:42;;;;;;;4.33;3.87;;;;;;;;;;4953945;28;20734;-45
2022/08/08 11:30:09;;;;;;;5.47;3.63;;;;;;;;;;4955554;28;20177;-45
2022/08/08 11:32:37;;;;;;;3.83;3.53;;;;;;;;;;4958132;28;20237;-46
2022/08/08 11:35:08;;;;;;;3.70;3.40;;;;;;;;;;4955442;28;20595;-46
2022/08/08 11:37:34;;;;;;;5.23;3.70;;;;;;;;;;4953752;28;20186;-45
2022/08/08 11:40:01;;;;;;;4.33;3.93;;;;;;;;;;4952687;28;21043;-46
2022/08/08 11:42:28;;;;;;;6.30;3.83;;;;;;;;;;4945265;28;20583;-45
2022/08/08 11:44:54;;;;;;;4.23;3.77;;;;;;;;;;4953096;28;20730;-46
2022/08/08 11:47:22;;;;;;;4.90;3.77;;;;;;;;;;4956379;28;20510;-45
2022/08/08 11:49:50;;;;;;;4.30;3.90;;;;;;;;;;4952480;28;20643;-45
2022/08/08 11:52:16;;;;;;;4.13;3.70;;;;;;;;;;4955756;28;20391;-45
2022/08/08 11:54:46;;;;;;;5.50;4.20;;;;;;;;;;4956435;28;20205;-45
2022/08/08 11:57:23;;;;;;;4.13;3.77;;;;;;;;;;4954201;28;20780;-45
2022/08/08 11:59:52;;;;;;;5.57;4.10;;;;;;;;;;4952986;28;20647;-45
2022/08/08 12:02:18;;;;;;;5.07;4.30;;;;;;;;;;4957463;28;20193;-45
2022/08/08 12:04:45;;;;;;;3.83;3.53;;;;;;;;;;4954472;28;20174;-45
2022/08/08 12:07:11;;;;;;;7.13;4.07;;;;;;;;;;4952346;28;20261;-45
2022/08/08 12:09:38;;;;;;;5.03;4.30;;;;;;;;;;4954795;28;20636;-45
2022/08/08 12:12:04;;;;;;;5.97;4.20;;;;;;;;;;4956337;28;20367;-45
2022/08/08 12:14:31;;;;;;;4.60;3.80;;;;;;;;;;4954589;28;20742;-45
2022/08/08 12:16:58;;;;;;;4.63;3.83;;;;;;;;;;4952885;28;20213;-45
2022/08/08 12:19:24;;;;;;;7.70;4.13;;;;;;;;;;4954484;28;20178;-45
2022/08/08 12:21:51;;;;;;;4.13;3.73;;;;;;;;;;4957032;28;20429;-45
2022/08/08 12:24:19;;;;;;;4.27;3.83;;;;;;;;;;4954165;28;20178;-45
2022/08/08 12:26:45;;;;;;;5.20;3.87;;;;;;;;;;4953549;28;20477;-45
2022/08/08 12:29:30;;;;;;;5.73;4.20;;;;;;;;;;4957172;28;20601;-45
2022/08/08 12:32:01;;;;;;;4.30;3.90;;;;;;;;;;4954283;28;21365;-45
2022/08/08 12:34:34;;;;;;;6.47;3.83;;;;;;;;;;4953534;28;20185;-45
2022/08/08 12:37:05;;;;;;;6.17;3.90;;;;;;;;;;4957223;28;20179;-45
2022/08/08 12:39:31;;;;;;;4.87;3.87;;;;;;;;;;4952952;28;20827;-45
2022/08/08 12:41:58;;;;;;;5.57;3.73;;;;;;;;;;4951664;28;20341;-45
2022/08/08 12:44:28;;;;;;;4.70;3.77;;;;;;;;;;4955075;28;20907;-45
2022/08/08 12:46:58;;;;;;;4.40;3.73;;;;;;;;;;4955645;28;20186;-45
2022/08/08 12:49:29;;;;;;;4.00;3.63;;;;;;;;;;4953330;28;21012;-45
2022/08/08 12:51:55;;;;;;;4.63;4.13;;;;;;;;;;4951989;28;20190;-45
2022/08/08 12:54:22;;;;;;;4.50;4.10;;;;;;;;;;4953057;28;20364;-45
2022/08/08 12:56:48;;;;;;;3.90;3.50;;;;;;;;;;4951221;28;20619;-45
2022/08/08 12:59:27;;;;;;;4.13;3.83;;;;;;;;;;4951281;28;20174;-45
2022/08/08 13:02:00;;;;;;;4.47;3.60;;;;;;;;;;4954824;28;20679;-44
2022/08/08 13:04:27;;;;;;;3.47;3.23;;;;;;;;;;4954372;28;20304;-45
2022/08/08 13:06:57;;;;;;;4.00;3.67;;;;;;;;;;4949457;28;20484;-45
2022/08/08 13:09:30;;;;;;;4.00;3.60;;;;;;;;;;4951115;28;20201;-45
2022/08/08 13:11:56;;;;;;;3.30;3.10;;;;;;;;;;4950644;28;20191;-45
2022/08/08 13:14:34;;;;;;;3.97;3.37;;;;;;;;;;4950817;28;20209;-44
2022/08/08 13:17:01;;;;;;;3.83;3.30;;;;;;;;;;4953924;28;20174;-45
2022/08/08 13:19:28;;;;;;;4.67;3.53;;;;;;;;;;4956910;28;20222;-45
2022/08/08 13:21:55;;;;;;;3.77;3.47;;;;;;;;;;4953925;28;20182;-45
2022/08/08 13:24:21;;;;;;;5.20;3.80;;;;;;;;;;4951127;28;20190;-45
2022/08/08 13:26:47;;;;;;;3.50;3.20;;;;;;;;;;4953256;28;20184;-43
2022/08/08 13:29:14;;;;;;;4.83;3.33;;;;;;;;;;4953099;28;20205;-45
2022/08/08 13:31:51;;;;;;;5.23;3.70;;;;;;;;;;4950968;28;20430;-45
2022/08/08 13:34:21;;;;;;;3.67;3.37;;;;;;;;;;4951840;28;20928;-45
2022/08/08 13:36:47;;;;;;;4.33;3.67;;;;;;;;;;4955214;28;20667;-45
2022/08/08 13:39:14;;;;;;;3.73;3.23;;;;;;;;;;4953613;28;20232;-45
2022/08/08 13:41:41;;;;;;;4.97;3.10;;;;;;;;;;4950992;28;20515;-45
2022/08/08 13:44:07;;;;;;;3.80;3.50;;;;;;;;;;4952501;28;20296;-45
2022/08/08 13:46:33;;;;;;;4.13;3.50;;;;;;;;;;4951720;28;20547;-46
2022/08/08 13:48:59;;;;;;;5.10;3.23;;;;;;;;;;4950458;28;20208;-45
2022/08/08 13:51:25;;;;;;;4.27;3.87;;;;;;;;;;4949656;28;20725;-46
2022/08/08 13:53:53;;;;;;;5.10;3.60;;;;;;;;;;4954945;28;20470;-45
2022/08/08 13:56:35;;;;;;;5.37;3.60;;;;;;;;;;4968760;28;20249;-45
2022/08/08 13:59:02;;;;;;;4.90;3.80;;;;;;;;;;4951485;28;20934;-45
2022/08/08 14:01:29;;;;;;;5.30;3.53;;;;;;;;;;4951034;28;20921;-44
2022/08/08 14:03:57;;;;;;;4.63;3.23;;;;;;;;;;4956452;28;20657;-44
2022/08/08 14:06:24;;;;;;;3.87;3.10;;;;;;;;;;4954174;28;20190;-45
2022/08/08 14:08:50;;;;;;;4.10;3.67;;;;;;;;;;4952871;28;20208;-45
2022/08/08 14:11:18;;;;;;;4.50;3.20;;;;;;;;;;4955248;28;20196;-43
2022/08/08 14:13:45;;;;;;;3.57;3.27;;;;;;;;;;4951494;28;20645;-46
2022/08/08 14:16:11;;;;;;;5.07;3.77;;;;;;;;;;4952229;28;20190;-46
2022/08/08 14:18:37;;;;;;;4.63;3.80;;;;;;;;;;4953174;28;20696;-45
2022/08/08 14:21:05;;;;;;;4.47;3.87;;;;;;;;;;4953745;28;20214;-45
2022/08/08 14:23:45;;;;;;;4.40;4.00;;;;;;;;;;4951897;28;20213;-45
2022/08/08 14:26:25;;;;;;;5.27;4.07;;;;;;;;;;4951811;28;20213;-45
2022/08/08 14:28:55;;;;;;;3.67;3.37;;;;;;;;;;4969518;28;20537;-45
2022/08/08 14:31:22;;;;;;;4.27;3.87;;;;;;;;;;4952293;28;20874;-45
2022/08/08 14:33:52;;;;;;;6.03;4.03;;;;;;;;;;4950704;28;20408;-45
2022/08/08 14:36:18;;;;;;;4.87;3.60;;;;;;;;;;4953545;28;20189;-45
2022/08/08 14:38:44;;;;;;;4.43;4.03;;;;;;;;;;4954697;28;20395;-45
2022/08/08 14:41:11;;;;;;;4.97;4.30;;;;;;;;;;4951930;28;20741;-45
2022/08/08 14:43:47;;;;;;;5.43;3.90;;;;;;;;;;4952917;28;20188;-45
2022/08/08 14:46:15;;;;;;;5.00;3.93;;;;;;;;;;4951850;28;20189;-45
2022/08/08 14:48:45;;;;;;;3.80;3.50;;;;;;;;;;4951359;28;20353;-45
2022/08/08 14:51:12;;;;;;;4.00;3.50;;;;;;;;;;4954423;28;20174;-46
2022/08/08 14:53:39;;;;;;;4.13;3.77;;;;;;;;;;4950656;28;20432;-45
2022/08/08 14:56:05;;;;;;;5.53;4.10;;;;;;;;;;4952860;28;20484;-45